地図

経路データ

SID SEASON NUMBER BASIN SUBBASIN NAME ISO_TIME NATURE LAT LON WMO_WIND WMO_PRES WMO_AGENCY TRACK_TYPE DIST2LAND LANDFALL IFLAG USA_AGENCY USA_ATCF_ID USA_LAT USA_LON USA_RECORD USA_STATUS USA_WIND USA_PRES USA_SSHS USA_R34_NE USA_R34_SE USA_R34_SW USA_R34_NW USA_R50_NE USA_R50_SE USA_R50_SW USA_R50_NW USA_R64_NE USA_R64_SE USA_R64_SW USA_R64_NW USA_POCI USA_ROCI USA_RMW USA_EYE TOKYO_LAT TOKYO_LON TOKYO_GRADE TOKYO_WIND TOKYO_PRES TOKYO_R50_DIR TOKYO_R50_LONG TOKYO_R50_SHORT TOKYO_R30_DIR TOKYO_R30_LONG TOKYO_R30_SHORT TOKYO_LAND CMA_LAT CMA_LON CMA_CAT CMA_WIND CMA_PRES HKO_LAT HKO_LON HKO_CAT HKO_WIND HKO_PRES NEWDELHI_LAT NEWDELHI_LON NEWDELHI_GRADE NEWDELHI_WIND NEWDELHI_PRES NEWDELHI_CI NEWDELHI_DP NEWDELHI_POCI REUNION_LAT REUNION_LON REUNION_TYPE REUNION_WIND REUNION_PRES REUNION_TNUM REUNION_CI REUNION_RMW REUNION_R34_NE REUNION_R34_SE REUNION_R34_SW REUNION_R34_NW REUNION_R50_NE REUNION_R50_SE REUNION_R50_SW REUNION_R50_NW REUNION_R64_NE REUNION_R64_SE REUNION_R64_SW REUNION_R64_NW BOM_LAT BOM_LON BOM_TYPE BOM_WIND BOM_PRES BOM_TNUM BOM_CI BOM_RMW BOM_R34_NE BOM_R34_SE BOM_R34_SW BOM_R34_NW BOM_R50_NE BOM_R50_SE BOM_R50_SW BOM_R50_NW BOM_R64_NE BOM_R64_SE BOM_R64_SW BOM_R64_NW BOM_ROCI BOM_POCI BOM_EYE BOM_POS_METHOD BOM_PRES_METHOD NADI_LAT NADI_LON NADI_CAT NADI_WIND NADI_PRES WELLINGTON_LAT WELLINGTON_LON WELLINGTON_WIND WELLINGTON_PRES DS824_LAT DS824_LON DS824_STAGE DS824_WIND DS824_PRES TD9636_LAT TD9636_LON TD9636_STAGE TD9636_WIND TD9636_PRES TD9635_LAT TD9635_LON TD9635_WIND TD9635_PRES TD9635_ROCI NEUMANN_LAT NEUMANN_LON NEUMANN_CLASS NEUMANN_WIND NEUMANN_PRES MLC_LAT MLC_LON MLC_CLASS MLC_WIND MLC_PRES USA_GUST BOM_GUST BOM_GUST_PER REUNION_GUST REUNION_GUST_PER USA_SEAHGT USA_SEARAD_NE USA_SEARAD_SE USA_SEARAD_SW USA_SEARAD_NW STORM_SPEED STORM_DIR
1970270N22285 1970 122 NA NA GRETA 1970-09-26 12:00:00 TS 22.2000 -75.4000 35 hurdat_atl main 135 133 O_____________ hurdat_atl AL161970 22.2000 -75.4000 TS 35 0 9 304
1970270N22285 1970 122 NA NA GRETA 1970-09-26 15:00:00 TS 22.4376 -75.7799 main 140 140 P_____________ AL161970 22.4376 -75.7799 TS 37 0 9 304
1970270N22285 1970 122 NA NA GRETA 1970-09-26 18:00:00 TS 22.7000 -76.2000 40 1005 hurdat_atl main 145 138 O_____________ hurdat_atl AL161970 22.7000 -76.2000 TS 40 1005 0 10 304
1970270N22285 1970 122 NA NA GRETA 1970-09-26 21:00:00 TS 23.0000 -76.6850 main 151 129 P_____________ AL161970 23.0000 -76.6850 TS 40 1006 0 11 303
1970270N22285 1970 122 NA NA GRETA 1970-09-27 00:00:00 TS 23.3000 -77.2000 40 1007 hurdat_atl main 129 78 O_____________ hurdat_atl AL161970 23.3000 -77.2000 TS 40 1007 0 11 302
1970270N22285 1970 122 NA NA GRETA 1970-09-27 03:00:00 TS 23.5719 -77.6628 main 73 45 P_____________ AL161970 23.5719 -77.6628 TS 40 1006 0 10 299
1970270N22285 1970 122 NA NA GRETA 1970-09-27 06:00:00 TS 23.8000 -78.2000 40 1006 hurdat_atl main 49 49 O_____________ hurdat_atl AL161970 23.8000 -78.2000 TS 40 1006 0 12 289
1970270N22285 1970 122 NA NA GRETA 1970-09-27 09:00:00 TS 23.9650 -78.9053 main 78 78 P_____________ AL161970 23.9650 -78.9053 TS 40 1005 0 14 282
1970270N22285 1970 122 NA NA GRETA 1970-09-27 12:00:00 TS 24.1000 -79.7000 40 1005 hurdat_atl main 132 100 O_____________ hurdat_atl AL161970 24.1000 -79.7000 TS 40 1005 0 15 281
1970270N22285 1970 122 NA NA GRETA 1970-09-27 15:00:00 TS 24.2498 -80.5001 main 101 78 P_____________ AL161970 24.2498 -80.5001 TS 37 1006 0 15 282
1970270N22285 1970 122 NA NA GRETA 1970-09-27 18:00:00 TS 24.4000 -81.3000 35 1007 hurdat_atl main 80 80 O_____________ hurdat_atl AL161970 24.4000 -81.3000 TS 35 1007 0 15 282
1970270N22285 1970 122 NA NA GRETA 1970-09-27 21:00:00 TS 24.5577 -82.1174 main 112 112 P_____________ AL161970 24.5577 -82.1174 TS 32 1006 -1 14 282
1970270N22285 1970 122 NA GM GRETA 1970-09-28 00:00:00 TS 24.7000 -82.8000 30 1006 hurdat_atl main 170 170 O_____________ hurdat_atl AL161970 24.7000 -82.8000 TD 30 1006 -1 10 284
1970270N22285 1970 122 NA GM GRETA 1970-09-28 03:00:00 TS 24.8144 -83.2327 main 194 194 P_____________ AL161970 24.8144 -83.2327 TD 30 1006 -1 7 287
1970270N22285 1970 122 NA GM GRETA 1970-09-28 06:00:00 TS 24.9000 -83.5000 30 1006 hurdat_atl main 212 212 O_____________ hurdat_atl AL161970 24.9000 -83.5000 TD 30 1006 -1 5 289
1970270N22285 1970 122 NA GM GRETA 1970-09-28 09:00:00 TS 24.9724 -83.7300 main 224 224 P_____________ AL161970 24.9724 -83.7300 TD 30 1006 -1 4 285
1970270N22285 1970 122 NA GM GRETA 1970-09-28 12:00:00 TS 25.0000 -83.9000 30 1006 hurdat_atl main 240 240 O_____________ hurdat_atl AL161970 25.0000 -83.9000 TD 30 1006 -1 3 269
1970270N22285 1970 122 NA GM GRETA 1970-09-28 15:00:00 TS 24.9650 -84.0651 main 245 234 P_____________ AL161970 24.9650 -84.0651 TD 30 1006 -1 3 250
1970270N22285 1970 122 NA GM GRETA 1970-09-28 18:00:00 TS 24.9000 -84.2000 30 1007 hurdat_atl main 237 237 O_____________ hurdat_atl AL161970 24.9000 -84.2000 TD 30 1007 -1 3 245
1970270N22285 1970 122 NA GM GRETA 1970-09-28 21:00:00 TS 24.8575 -84.3150 main 241 231 P_____________ AL161970 24.8575 -84.3150 TD 30 1006 -1 2 241
1970270N22285 1970 122 NA GM GRETA 1970-09-29 00:00:00 TS 24.8000 -84.4000 30 1006 hurdat_atl main 234 223 O_____________ hurdat_atl AL161970 24.8000 -84.4000 TD 30 1006 -1 2 218
1970270N22285 1970 122 NA GM GRETA 1970-09-29 03:00:00 TS 24.7075 -84.4425 main 223 217 P_____________ AL161970 24.7075 -84.4425 TD 30 1006 -1 2 205
1970270N22285 1970 122 NA GM GRETA 1970-09-29 06:00:00 TS 24.6000 -84.5000 30 1007 hurdat_atl main 217 210 O_____________ hurdat_atl AL161970 24.6000 -84.5000 TD 30 1007 -1 3 220
1970270N22285 1970 122 NA GM GRETA 1970-09-29 09:00:00 TS 24.5000 -84.6350 main 210 202 P_____________ AL161970 24.5000 -84.6350 TD 30 -1 3 234
1970270N22285 1970 122 NA GM GRETA 1970-09-29 12:00:00 TS 24.4000 -84.8000 30 hurdat_atl main 206 200 O_____________ hurdat_atl AL161970 24.4000 -84.8000 TD 30 -1 4 234
1970270N22285 1970 122 NA GM GRETA 1970-09-29 15:00:00 TS 24.2925 -84.9500 main 205 196 P_____________ AL161970 24.2925 -84.9500 TD 30 -1 3 234
1970270N22285 1970 122 NA GM GRETA 1970-09-29 18:00:00 TS 24.2000 -85.1000 30 hurdat_atl main 201 198 O_____________ hurdat_atl AL161970 24.2000 -85.1000 TD 30 -1 3 241
1970270N22285 1970 122 NA GM GRETA 1970-09-29 21:00:00 TS 24.1425 -85.2500 main 198 198 P_____________ AL161970 24.1425 -85.2500 TD 30 -1 3 250
1970270N22285 1970 122 NA GM GRETA 1970-09-30 00:00:00 TS 24.1000 -85.4000 30 hurdat_atl main 211 211 O_____________ hurdat_atl AL161970 24.1000 -85.4000 TD 30 -1 3 253
1970270N22285 1970 122 NA GM GRETA 1970-09-30 03:00:00 TS 24.0575 -85.5500 main 218 218 P_____________ AL161970 24.0575 -85.5500 TD 30 -1 3 250
1970270N22285 1970 122 NA GM GRETA 1970-09-30 06:00:00 TS 24.0000 -85.7000 30 hurdat_atl main 226 226 O_____________ hurdat_atl AL161970 24.0000 -85.7000 TD 30 -1 3 243
1970270N22285 1970 122 NA GM GRETA 1970-09-30 09:00:00 TS 23.9150 -85.8500 main 226 226 P_____________ AL161970 23.9150 -85.8500 TD 30 -1 3 234
1970270N22285 1970 122 NA GM GRETA 1970-09-30 12:00:00 TS 23.8000 -86.0000 30 hurdat_atl main 233 230 O_____________ hurdat_atl AL161970 23.8000 -86.0000 TD 30 -1 4 227
1970270N22285 1970 122 NA GM GRETA 1970-09-30 15:00:00 TS 23.6650 -86.1424 main 230 223 P_____________ AL161970 23.6650 -86.1424 TD 30 -1 4 222
1970270N22285 1970 122 NA GM GRETA 1970-09-30 18:00:00 TS 23.5000 -86.3000 30 1006 hurdat_atl main 223 207 O_____________ hurdat_atl AL161970 23.5000 -86.3000 TD 30 1006 -1 5 222
1970270N22285 1970 122 NA GM GRETA 1970-09-30 21:00:00 TS 23.3150 -86.4849 main 207 181 P_____________ AL161970 23.3150 -86.4849 TD 30 1005 -1 5 222
1970270N22285 1970 122 NA GM GRETA 1970-10-01 00:00:00 TS 23.1000 -86.7000 30 1004 hurdat_atl main 181 156 O_____________ hurdat_atl AL161970 23.1000 -86.7000 TD 30 1004 -1 6 222
1970270N22285 1970 122 NA GM GRETA 1970-10-01 03:00:00 TS 22.8500 -86.9350 main 145 123 P_____________ AL161970 22.8500 -86.9350 TD 30 1004 -1 7 223
1970270N22285 1970 122 NA GM GRETA 1970-10-01 06:00:00 TS 22.6000 -87.2000 30 hurdat_atl main 123 102 I_____________ hurdat_atl AL161970 22.6000 -87.2000 TD 30 1004 -1 7 228
1970270N22285 1970 122 NA GM GRETA 1970-10-01 09:00:00 TS 22.3850 -87.4925 main 102 78 P_____________ AL161970 22.3850 -87.4925 TD 30 1004 -1 7 234
1970270N22285 1970 122 NA GM GRETA 1970-10-01 12:00:00 TS 22.2000 -87.8000 30 1004 hurdat_atl main 78 55 O_____________ hurdat_atl AL161970 22.2000 -87.8000 TD 30 1004 -1 7 238
1970270N22285 1970 122 NA GM GRETA 1970-10-01 15:00:00 TS 22.0349 -88.0999 main 55 44 P_____________ AL161970 22.0349 -88.0999 TD 30 1003 -1 6 242
1970270N22285 1970 122 NA GM GRETA 1970-10-01 18:00:00 TS 21.9000 -88.4000 30 hurdat_atl main 44 33 I_____________ hurdat_atl AL161970 21.9000 -88.4000 TD 30 1003 -1 6 245
1970270N22285 1970 122 NA GM GRETA 1970-10-01 21:00:00 TS 21.7775 -88.7075 main 35 30 P_____________ AL161970 21.7775 -88.7075 TD 30 1003 -1 6 250
1970270N22285 1970 122 NA GM GRETA 1970-10-02 00:00:00 TS 21.7000 -89.0000 30 1003 hurdat_atl main 39 39 O_____________ hurdat_atl AL161970 21.7000 -89.0000 TD 30 1003 -1 5 260
1970270N22285 1970 122 NA GM GRETA 1970-10-02 03:00:00 TS 21.6924 -89.2499 main 44 44 P_____________ AL161970 21.6924 -89.2499 TD 30 1003 -1 5 270
1970270N22285 1970 122 NA GM GRETA 1970-10-02 06:00:00 TS 21.7000 -89.5000 30 hurdat_atl main 49 49 I_____________ hurdat_atl AL161970 21.7000 -89.5000 TD 30 1004 -1 5 265
1970270N22285 1970 122 NA GM GRETA 1970-10-02 09:00:00 TS 21.6499 -89.7776 main 44 44 P_____________ AL161970 21.6499 -89.7776 TD 30 1004 -1 6 260
1970270N22285 1970 122 NA GM GRETA 1970-10-02 12:00:00 TS 21.6000 -90.1000 30 1005 hurdat_atl main 49 49 O_____________ hurdat_atl AL161970 21.6000 -90.1000 TD 30 1005 -1 7 266
1970270N22285 1970 122 NA GM GRETA 1970-10-02 15:00:00 TS 21.6075 -90.4848 main 59 59 P_____________ AL161970 21.6075 -90.4848 TD 30 1005 -1 7 270
1970270N22285 1970 122 NA GM GRETA 1970-10-02 18:00:00 TS 21.6000 -90.9000 30 1005 hurdat_atl main 83 83 O_____________ hurdat_atl AL161970 21.6000 -90.9000 TD 30 1005 -1 8 263
1970270N22285 1970 122 NA GM GRETA 1970-10-02 21:00:00 TS 21.5149 -91.3001 main 112 112 P_____________ AL161970 21.5149 -91.3001 TD 30 -1 8 255
1970270N22285 1970 122 NA GM GRETA 1970-10-03 00:00:00 TS 21.4000 -91.7000 30 hurdat_atl main 148 148 O_____________ hurdat_atl AL161970 21.4000 -91.7000 TD 30 -1 8 253
1970270N22285 1970 122 NA GM GRETA 1970-10-03 03:00:00 TS 21.2850 -92.1076 main 185 185 P_____________ AL161970 21.2850 -92.1076 TD 30 -1 8 255
1970270N22285 1970 122 NA GM GRETA 1970-10-03 06:00:00 TS 21.2000 -92.5000 30 hurdat_atl main 222 222 O_____________ hurdat_atl AL161970 21.2000 -92.5000 TD 30 -1 7 262
1970270N22285 1970 122 NA GM GRETA 1970-10-03 09:00:00 TS 21.1849 -92.8574 main 261 261 P_____________ AL161970 21.1849 -92.8574 TD 27 -1 7 270
1970270N22285 1970 122 NA GM GRETA 1970-10-03 12:00:00 TS 21.2000 -93.2000 25 hurdat_atl main 291 291 O_____________ hurdat_atl AL161970 21.2000 -93.2000 TD 25 -1 6 270
1970270N22285 1970 122 NA GM GRETA 1970-10-03 15:00:00 TS 21.1849 -93.5426 main 302 298 P_____________ AL161970 21.1849 -93.5426 TD 25 -1 7 270
1970270N22285 1970 122 NA GM GRETA 1970-10-03 18:00:00 TS 21.2000 -93.9000 25 hurdat_atl main 298 268 O_____________ hurdat_atl AL161970 21.2000 -93.9000 TD 25 -1 7 278
1970270N22285 1970 122 NA GM GRETA 1970-10-03 21:00:00 TS 21.2773 -94.2775 main 268 243 P_____________ AL161970 21.2773 -94.2775 TD 25 -1 8 285
1970270N22285 1970 122 NA GM GRETA 1970-10-04 00:00:00 TS 21.4000 -94.7000 25 hurdat_atl main 243 220 O_____________ hurdat_atl AL161970 21.4000 -94.7000 TD 25 -1 9 287
1970270N22285 1970 122 NA GM GRETA 1970-10-04 03:00:00 TS 21.5348 -95.1701 main 213 165 P_____________ AL161970 21.5348 -95.1701 TD 25 -1 10 288
1970270N22285 1970 122 NA GM GRETA 1970-10-04 06:00:00 TS 21.7000 -95.7000 25 hurdat_atl main 165 118 O_____________ hurdat_atl AL161970 21.7000 -95.7000 TD 25 -1 11 289
1970270N22285 1970 122 NA GM GRETA 1970-10-04 09:00:00 TS 21.8924 -96.2776 main 108 68 P_____________ AL161970 21.8924 -96.2776 TD 25 -1 12 290
1970270N22285 1970 122 NA GM GRETA 1970-10-04 12:00:00 TS 22.1000 -96.9000 25 1009 hurdat_atl main 68 30 O_____________ hurdat_atl AL161970 22.1000 -96.9000 TD 25 1009 -1 12 289
1970270N22285 1970 122 NA GM GRETA 1970-10-04 15:00:00 TS 22.3030 -97.5447 main 30 0 P_____________ AL161970 22.3030 -97.5447 TD 25 -1 13 288
1970270N22285 1970 122 NA NA GRETA 1970-10-04 18:00:00 TS 22.5000 -98.2000 25 hurdat_atl main 0 O_____________ hurdat_atl AL161970 22.5000 -98.2000 TD 25 -1 13 288

IBTrACS Databaseについて

本データベースは、米国NOAAが公開する1842年以降の世界の熱帯低気圧のベストトラックデータアーカイブInternational Best Track Archive for Climate Stewardship (IBTrACS)を、ウェブで閲覧しやすい形式に変換したものです。

最終更新日:2022-10-05